createdAt,value
2023-05-22T00:00:03.853Z,383.00
2023-05-22T00:01:03.913Z,383.00
2023-05-22T00:02:03.977Z,382.00
2023-05-22T00:03:04.091Z,382.00
2023-05-22T00:04:04.075Z,382.00
2023-05-22T00:05:04.251Z,381.00
2023-05-22T00:06:04.167Z,384.00
2023-05-22T00:07:04.222Z,384.00
2023-05-22T00:08:04.269Z,384.00
2023-05-22T00:09:04.328Z,384.00
2023-05-22T00:10:04.375Z,384.00
2023-05-22T00:11:04.425Z,385.00
2023-05-22T00:12:04.463Z,383.00
2023-05-22T00:13:04.532Z,383.00
2023-05-22T00:14:04.596Z,383.00
2023-05-22T00:15:04.636Z,385.00
2023-05-22T00:16:04.698Z,385.00
2023-05-22T00:17:04.811Z,385.00
2023-05-22T00:18:04.816Z,385.00
2023-05-22T00:19:04.903Z,386.00
2023-05-22T00:20:04.937Z,386.00
2023-05-22T00:21:05.053Z,385.00
2023-05-22T00:22:05.031Z,385.00
2023-05-22T00:23:05.079Z,385.00
2023-05-22T00:24:05.135Z,386.00
2023-05-22T00:25:05.191Z,385.00
2023-05-22T00:26:05.266Z,386.00
2023-05-22T00:27:05.325Z,385.00
2023-05-22T00:28:05.371Z,385.00
2023-05-22T00:29:05.446Z,385.00
2023-05-22T00:30:05.499Z,386.00
2023-05-22T00:31:05.563Z,387.00
2023-05-22T00:32:05.708Z,386.00
2023-05-22T00:33:05.714Z,385.00
2023-05-22T00:34:05.738Z,387.00
2023-05-22T00:35:05.794Z,388.00
2023-05-22T00:36:05.832Z,388.00
2023-05-22T00:37:05.904Z,387.00
2023-05-22T00:38:05.945Z,386.00
2023-05-22T00:39:06.050Z,386.00
2023-05-22T00:40:06.071Z,387.00
2023-05-22T00:41:06.144Z,388.00
2023-05-22T00:42:06.215Z,386.00
2023-05-22T00:43:06.241Z,386.00
2023-05-22T00:44:06.310Z,385.00
2023-05-22T00:45:06.388Z,387.00
2023-05-22T00:46:06.433Z,386.00
2023-05-22T00:47:06.471Z,388.00
2023-05-22T00:48:06.544Z,390.00
2023-05-22T00:49:06.575Z,393.00
2023-05-22T00:50:06.620Z,393.00
2023-05-22T00:51:06.683Z,394.00
2023-05-22T00:52:06.765Z,392.00
2023-05-22T00:53:06.776Z,388.00
2023-05-22T00:54:06.850Z,388.00
2023-05-22T00:55:06.893Z,390.00
2023-05-22T00:56:06.954Z,391.00
2023-05-22T00:57:07.052Z,391.00
2023-05-22T00:58:07.083Z,391.00
2023-05-22T00:59:07.124Z,390.00
2023-05-22T01:00:07.196Z,391.00
2023-05-22T01:01:07.256Z,391.00
2023-05-22T01:02:07.440Z,391.00
2023-05-22T01:03:07.441Z,391.00
2023-05-22T01:04:07.466Z,390.00
2023-05-22T01:05:07.499Z,390.00
2023-05-22T01:06:07.545Z,391.00
2023-05-22T01:07:07.635Z,393.00
2023-05-22T01:08:07.655Z,394.00
2023-05-22T01:09:07.712Z,393.00
2023-05-22T01:10:07.792Z,395.00
2023-05-22T01:11:07.865Z,395.00
2023-05-22T01:12:07.898Z,396.00
2023-05-22T01:13:07.956Z,394.00
2023-05-22T01:14:08.043Z,393.00
2023-05-22T01:15:08.080Z,395.00
2023-05-22T01:16:08.201Z,395.00
2023-05-22T01:17:08.204Z,395.00
2023-05-22T01:18:08.334Z,398.00
2023-05-22T01:19:08.356Z,398.00
2023-05-22T01:20:08.385Z,399.00
2023-05-22T01:21:08.432Z,399.00
2023-05-22T01:22:08.516Z,398.00
2023-05-22T01:23:08.564Z,397.00
2023-05-22T01:24:08.604Z,397.00
2023-05-22T01:25:08.680Z,398.00
2023-05-22T01:26:08.736Z,398.00
2023-05-22T01:27:08.805Z,397.00
2023-05-22T01:28:08.855Z,395.00
2023-05-22T01:29:08.929Z,394.00
2023-05-22T01:30:08.988Z,395.00
2023-05-22T01:31:09.052Z,395.00
2023-05-22T01:32:09.105Z,394.00
2023-05-22T01:33:09.262Z,392.00
2023-05-22T01:34:09.227Z,391.00
2023-05-22T01:35:09.310Z,389.00
2023-05-22T01:36:09.364Z,390.00
2023-05-22T01:37:09.410Z,390.00
2023-05-22T01:38:09.472Z,392.00
2023-05-22T01:39:09.555Z,394.00
2023-05-22T01:40:09.616Z,395.00
2023-05-22T01:41:09.660Z,395.00
2023-05-22T01:42:09.722Z,394.00
2023-05-22T01:43:09.799Z,394.00
2023-05-22T01:44:09.870Z,394.00
2023-05-22T01:45:09.916Z,392.00
2023-05-22T01:46:10.091Z,391.00
2023-05-22T01:47:10.096Z,392.00
2023-05-22T01:48:10.237Z,393.00
2023-05-22T01:49:10.169Z,396.00
2023-05-22T01:50:10.217Z,395.00
2023-05-22T01:51:10.276Z,395.00
2023-05-22T01:52:10.360Z,393.00
2023-05-22T01:53:10.409Z,391.00
2023-05-22T01:54:10.491Z,390.00
2023-05-22T01:55:10.535Z,388.00
2023-05-22T01:56:10.614Z,387.00
2023-05-22T01:57:10.671Z,388.00
2023-05-22T01:58:10.756Z,389.00
2023-05-22T01:59:10.785Z,389.00
2023-05-22T02:00:10.842Z,391.00
2023-05-22T02:01:11.130Z,392.00
2023-05-22T02:02:11.052Z,394.00
2023-05-22T02:03:11.097Z,398.00
2023-05-22T02:04:11.100Z,397.00
2023-05-22T02:05:11.150Z,398.00
2023-05-22T02:06:11.281Z,399.00
2023-05-22T02:07:12.243Z,398.00
2023-05-22T02:08:11.330Z,398.00
2023-05-22T02:09:11.411Z,399.00
2023-05-22T02:10:11.498Z,401.00
2023-05-22T02:11:11.499Z,400.00
2023-05-22T02:12:11.574Z,399.00
2023-05-22T02:13:11.618Z,398.00
2023-05-22T02:14:11.695Z,398.00
2023-05-22T02:15:11.740Z,398.00
2023-05-22T02:16:11.840Z,397.00
2023-05-22T02:17:11.858Z,396.00
2023-05-22T02:18:11.976Z,396.00
2023-05-22T02:19:11.994Z,397.00
2023-05-22T02:20:12.022Z,399.00
2023-05-22T02:21:12.055Z,397.00
2023-05-22T02:22:12.076Z,397.00
2023-05-22T02:23:12.132Z,398.00
2023-05-22T02:24:12.167Z,398.00
2023-05-22T02:25:12.204Z,397.00
2023-05-22T02:26:12.282Z,395.00
2023-05-22T02:27:12.322Z,394.00
2023-05-22T02:28:12.378Z,395.00
2023-05-22T02:29:12.424Z,395.00
2023-05-22T02:30:12.496Z,396.00
2023-05-22T02:31:12.523Z,396.00
2023-05-22T02:32:12.571Z,397.00
2023-05-22T02:33:12.618Z,398.00
2023-05-22T02:34:12.655Z,397.00
2023-05-22T02:35:12.722Z,396.00
2023-05-22T02:36:12.746Z,396.00
2023-05-22T02:37:12.827Z,397.00
2023-05-22T02:38:12.943Z,397.00
2023-05-22T02:39:12.901Z,397.00
2023-05-22T02:40:12.980Z,398.00
2023-05-22T02:41:13.016Z,401.00
2023-05-22T02:42:13.088Z,401.00
2023-05-22T02:43:13.154Z,400.00
2023-05-22T02:44:13.188Z,398.00
2023-05-22T02:45:13.220Z,396.00
2023-05-22T02:46:13.328Z,395.00
2023-05-22T02:47:13.328Z,395.00
2023-05-22T02:48:13.421Z,394.00
2023-05-22T02:49:13.438Z,396.00
2023-05-22T02:50:13.479Z,396.00
2023-05-22T02:51:13.505Z,396.00
2023-05-22T02:52:13.540Z,394.00
2023-05-22T02:53:13.587Z,395.00
2023-05-22T02:54:13.592Z,396.00
2023-05-22T02:55:13.663Z,395.00
2023-05-22T02:56:13.698Z,393.00
2023-05-22T02:57:13.748Z,393.00
2023-05-22T02:58:13.789Z,394.00
2023-05-22T02:59:13.843Z,395.00
2023-05-22T03:00:13.903Z,396.00
2023-05-22T03:01:14.005Z,394.00
2023-05-22T03:02:13.975Z,392.00
2023-05-22T03:03:14.136Z,393.00
2023-05-22T03:04:14.123Z,392.00
2023-05-22T03:05:14.114Z,393.00
2023-05-22T03:06:14.143Z,392.00
2023-05-22T03:07:14.182Z,392.00
2023-05-22T03:08:14.214Z,391.00
2023-05-22T03:09:14.247Z,390.00
2023-05-22T03:10:14.302Z,392.00
2023-05-22T03:11:14.313Z,393.00
2023-05-22T03:12:14.355Z,395.00
2023-05-22T03:13:14.373Z,392.00
2023-05-22T03:14:14.396Z,391.00
2023-05-22T03:15:14.414Z,390.00
2023-05-22T03:16:14.454Z,390.00
2023-05-22T03:17:14.448Z,391.00
2023-05-22T03:18:14.466Z,393.00
2023-05-22T03:19:14.515Z,394.00
2023-05-22T03:20:14.521Z,392.00
2023-05-22T03:21:14.513Z,391.00
2023-05-22T03:22:14.550Z,393.00
2023-05-22T03:23:14.575Z,394.00
2023-05-22T03:24:14.571Z,395.00
2023-05-22T03:25:14.603Z,393.00
2023-05-22T03:26:14.641Z,394.00
2023-05-22T03:27:14.681Z,394.00
2023-05-22T03:28:14.690Z,394.00
2023-05-22T03:29:14.738Z,397.00
2023-05-22T03:30:14.762Z,398.00
2023-05-22T03:31:14.746Z,399.00
2023-05-22T03:32:14.755Z,399.00
2023-05-22T03:33:14.790Z,399.00
2023-05-22T03:34:14.813Z,399.00
2023-05-22T03:35:14.814Z,400.00
2023-05-22T03:36:14.836Z,399.00
2023-05-22T03:37:14.842Z,399.00
2023-05-22T03:38:14.922Z,398.00
2023-05-22T03:39:14.898Z,398.00
2023-05-22T03:40:14.958Z,399.00
2023-05-22T03:41:14.954Z,398.00
2023-05-22T03:42:14.963Z,400.00
2023-05-22T03:43:14.979Z,401.00
2023-05-22T03:44:14.950Z,400.00
2023-05-22T03:45:14.966Z,401.00
2023-05-22T03:46:14.994Z,400.00
2023-05-22T03:47:14.973Z,398.00
2023-05-22T03:48:14.994Z,398.00
2023-05-22T03:49:15.072Z,399.00
2023-05-22T03:50:14.977Z,401.00
2023-05-22T03:51:14.993Z,401.00
2023-05-22T03:52:15.003Z,400.00
2023-05-22T03:53:14.979Z,400.00
2023-05-22T03:54:14.977Z,401.00
2023-05-22T03:55:14.950Z,401.00
2023-05-22T03:56:14.977Z,402.00
2023-05-22T03:57:14.975Z,401.00
2023-05-22T03:58:14.994Z,402.00
2023-05-22T03:59:14.991Z,402.00
2023-05-22T04:00:15.024Z,401.00
2023-05-22T04:01:15.030Z,402.00
2023-05-22T04:02:15.100Z,400.00
2023-05-22T04:03:15.282Z,401.00
2023-05-22T04:04:15.100Z,403.00
2023-05-22T04:05:15.136Z,401.00
2023-05-22T04:06:15.160Z,400.00
2023-05-22T04:07:15.206Z,401.00
2023-05-22T04:08:15.238Z,400.00
2023-05-22T04:09:15.248Z,399.00
2023-05-22T04:10:15.290Z,400.00
2023-05-22T04:11:15.312Z,400.00
2023-05-22T04:12:15.344Z,402.00
2023-05-22T04:13:15.344Z,404.00
2023-05-22T04:14:15.372Z,402.00
2023-05-22T04:15:15.392Z,401.00
2023-05-22T04:16:15.443Z,401.00
2023-05-22T04:17:15.420Z,399.00
2023-05-22T04:18:15.445Z,400.00
2023-05-22T04:19:15.492Z,399.00
2023-05-22T04:20:15.494Z,398.00
2023-05-22T04:21:15.524Z,399.00
2023-05-22T04:22:15.547Z,401.00
2023-05-22T04:23:15.606Z,400.00
2023-05-22T04:24:15.653Z,400.00
2023-05-22T04:25:15.692Z,401.00
2023-05-22T04:26:15.727Z,401.00
2023-05-22T04:27:15.736Z,399.00
2023-05-22T04:28:15.746Z,398.00
2023-05-22T04:29:15.770Z,400.00
2023-05-22T04:30:15.783Z,400.00
2023-05-22T04:31:15.850Z,400.00
2023-05-22T04:32:15.865Z,401.00
2023-05-22T04:33:15.948Z,402.00
2023-05-22T04:34:15.889Z,402.00
2023-05-22T04:35:15.909Z,401.00
2023-05-22T04:36:15.972Z,403.00
2023-05-22T04:37:16.054Z,404.00
2023-05-22T04:38:16.072Z,406.00
2023-05-22T04:39:16.121Z,408.00
2023-05-22T04:40:16.144Z,408.00
2023-05-22T04:41:16.192Z,411.00
2023-05-22T04:42:16.315Z,410.00
2023-05-22T04:43:16.276Z,413.00
2023-05-22T04:44:16.319Z,411.00
2023-05-22T04:45:16.378Z,409.00
2023-05-22T04:46:16.477Z,409.00
2023-05-22T04:47:16.480Z,407.00
2023-05-22T04:48:16.525Z,406.00
2023-05-22T04:49:16.544Z,404.00
2023-05-22T04:50:16.580Z,403.00
2023-05-22T04:51:16.640Z,401.00
2023-05-22T04:52:16.684Z,402.00
2023-05-22T04:53:16.802Z,400.00
2023-05-22T04:54:16.843Z,401.00
2023-05-22T04:55:16.900Z,401.00
2023-05-22T04:56:27.870Z,399.00
2023-05-22T04:57:17.943Z,399.00
2023-05-22T04:58:16.934Z,399.00
2023-05-22T04:59:16.947Z,398.00
2023-05-22T05:00:17.033Z,395.00
2023-05-22T05:01:16.960Z,394.00
2023-05-22T05:02:16.920Z,394.00
2023-05-22T05:03:17.012Z,396.00
2023-05-22T05:04:16.888Z,398.00
2023-05-22T05:05:16.891Z,398.00
2023-05-22T05:06:16.914Z,399.00
2023-05-22T05:07:16.979Z,400.00
2023-05-22T05:08:17.022Z,402.00
2023-05-22T05:09:17.059Z,400.00
2023-05-22T05:10:17.107Z,399.00
2023-05-22T05:11:17.143Z,397.00
2023-05-22T05:12:17.189Z,397.00
2023-05-22T05:13:17.220Z,397.00
2023-05-22T05:14:17.250Z,397.00
2023-05-22T05:15:17.290Z,397.00
2023-05-22T05:16:17.359Z,399.00
2023-05-22T05:17:17.470Z,400.00
2023-05-22T05:18:17.445Z,400.00
2023-05-22T05:19:17.450Z,402.00
2023-05-22T05:20:17.438Z,401.00
2023-05-22T05:21:17.506Z,399.00
2023-05-22T05:22:17.530Z,400.00
2023-05-22T05:23:17.552Z,404.00
2023-05-22T05:24:17.580Z,407.00
2023-05-22T05:25:17.587Z,409.00
2023-05-22T05:26:17.630Z,410.00
2023-05-22T05:27:17.943Z,411.00
2023-05-22T05:28:17.669Z,409.00
2023-05-22T05:29:17.747Z,411.00
2023-05-22T05:30:20.325Z,415.00
2023-05-22T05:31:17.772Z,425.00
2023-05-22T05:32:17.867Z,439.00
2023-05-22T05:33:17.736Z,529.00
2023-05-22T05:34:17.718Z,542.00
2023-05-22T05:35:17.741Z,590.00
2023-05-22T05:36:17.713Z,608.00
2023-05-22T05:37:17.748Z,618.00
2023-05-22T05:38:17.712Z,616.00
2023-05-22T05:39:17.721Z,638.00
2023-05-22T05:40:17.703Z,675.00
2023-05-22T05:41:17.686Z,727.00
2023-05-22T05:42:17.691Z,733.00
2023-05-22T05:43:17.683Z,741.00
2023-05-22T05:44:17.743Z,749.00
2023-05-22T05:45:17.672Z,766.00
2023-05-22T05:46:17.725Z,779.00
2023-05-22T05:47:17.646Z,788.00
2023-05-22T05:48:17.650Z,792.00
2023-05-22T05:49:17.631Z,792.00
2023-05-22T05:50:17.650Z,793.00
2023-05-22T05:51:17.628Z,795.00
2023-05-22T05:52:17.629Z,788.00
2023-05-22T05:53:17.631Z,779.00
2023-05-22T05:54:17.614Z,781.00
2023-05-22T05:55:17.613Z,788.00
2023-05-22T05:56:17.587Z,801.00
2023-05-22T05:57:17.596Z,818.00
2023-05-22T05:58:17.606Z,826.00
2023-05-22T05:59:17.563Z,826.00
2023-05-22T06:00:17.580Z,826.00
2023-05-22T06:01:17.552Z,831.00
2023-05-22T06:02:17.600Z,836.00
2023-05-22T06:03:17.665Z,840.00
2023-05-22T06:04:17.556Z,839.00
2023-05-22T06:05:17.575Z,817.00
2023-05-22T06:06:17.563Z,831.00
2023-05-22T06:07:17.559Z,840.00
2023-05-22T06:08:17.536Z,845.00
2023-05-22T06:09:17.534Z,799.00
2023-05-22T06:10:17.508Z,846.00
2023-05-22T06:11:17.504Z,842.00
2023-05-22T06:12:17.488Z,841.00
2023-05-22T06:13:17.472Z,847.00
2023-05-22T06:14:17.478Z,857.00
2023-05-22T06:15:17.477Z,862.00
2023-05-22T06:16:17.537Z,863.00
2023-05-22T06:17:17.467Z,864.00
2023-05-22T06:18:17.489Z,870.00
2023-05-22T06:19:17.464Z,872.00
2023-05-22T06:20:17.453Z,858.00
2023-05-22T06:21:17.425Z,856.00
2023-05-22T06:22:17.422Z,860.00
2023-05-22T06:23:17.503Z,867.00
2023-05-22T06:24:17.418Z,845.00
2023-05-22T06:25:17.405Z,859.00
2023-05-22T06:26:17.382Z,861.00
2023-05-22T06:27:17.387Z,864.00
2023-05-22T06:28:17.382Z,870.00
2023-05-22T06:29:17.511Z,876.00
2023-05-22T06:30:28.171Z,880.00
2023-05-22T06:31:18.391Z,880.00
2023-05-22T06:32:17.429Z,882.00
2023-05-22T06:33:17.398Z,854.00
2023-05-22T06:34:17.371Z,857.00
2023-05-22T06:35:17.345Z,817.00
2023-05-22T06:36:17.326Z,828.00
2023-05-22T06:37:17.327Z,704.00
2023-05-22T06:38:17.335Z,789.00
2023-05-22T06:39:17.305Z,820.00
2023-05-22T06:40:17.303Z,841.00
2023-05-22T06:41:17.387Z,853.00
2023-05-22T06:42:17.416Z,856.00
2023-05-22T06:43:17.467Z,856.00
2023-05-22T06:44:17.544Z,843.00
2023-05-22T06:45:17.699Z,792.00
2023-05-22T06:46:17.704Z,788.00
2023-05-22T06:47:17.985Z,811.00
2023-05-22T06:48:17.742Z,837.00
2023-05-22T06:49:17.794Z,848.00
2023-05-22T06:50:17.816Z,853.00
2023-05-22T06:51:17.950Z,854.00
2023-05-22T06:52:17.928Z,666.00
2023-05-22T06:53:17.997Z,644.00
2023-05-22T06:54:18.039Z,594.00
2023-05-22T06:55:18.083Z,584.00
2023-05-22T06:56:18.106Z,543.00
2023-05-22T06:57:18.112Z,507.00
2023-05-22T06:58:18.122Z,492.00
2023-05-22T06:59:18.135Z,493.00
2023-05-22T07:00:20.186Z,490.00
2023-05-22T07:01:18.192Z,488.00
2023-05-22T07:02:18.128Z,484.00
2023-05-22T07:03:18.119Z,480.00
2023-05-22T07:04:18.099Z,477.00
2023-05-22T07:05:18.150Z,483.00
2023-05-22T07:06:18.326Z,488.00
2023-05-22T07:07:18.098Z,479.00
2023-05-22T07:08:18.068Z,475.00
2023-05-22T07:09:18.068Z,469.00
2023-05-22T07:10:18.080Z,466.00
2023-05-22T07:11:18.056Z,465.00
2023-05-22T07:12:18.057Z,467.00
2023-05-22T07:13:18.037Z,463.00
2023-05-22T07:14:18.057Z,472.00
2023-05-22T07:15:18.034Z,472.00
2023-05-22T07:16:18.062Z,468.00
2023-05-22T07:17:18.582Z,470.00
2023-05-22T07:18:18.015Z,463.00
2023-05-22T07:19:18.057Z,462.00
2023-05-22T07:20:18.004Z,468.00
2023-05-22T07:21:17.975Z,467.00
2023-05-22T07:22:18.040Z,465.00
2023-05-22T07:23:17.973Z,465.00
2023-05-22T07:24:17.987Z,465.00
2023-05-22T07:25:17.955Z,464.00
2023-05-22T07:26:17.969Z,467.00
2023-05-22T07:27:17.987Z,497.00
2023-05-22T07:28:17.957Z,508.00
2023-05-22T07:29:17.938Z,508.00
2023-05-22T07:30:17.944Z,529.00
2023-05-22T07:31:17.955Z,530.00
2023-05-22T07:32:17.913Z,519.00
2023-05-22T07:33:18.010Z,581.00
2023-05-22T07:34:17.913Z,602.00
2023-05-22T07:35:17.908Z,643.00
2023-05-22T07:36:17.897Z,704.00
2023-05-22T07:37:17.883Z,712.00
2023-05-22T07:38:18.007Z,728.00
2023-05-22T07:39:17.870Z,745.00
2023-05-22T07:40:17.883Z,760.00
2023-05-22T07:41:17.886Z,775.00
2023-05-22T07:42:17.904Z,787.00
2023-05-22T07:43:17.998Z,794.00
2023-05-22T07:44:17.847Z,794.00
2023-05-22T07:45:17.848Z,805.00
2023-05-22T07:46:17.902Z,812.00
2023-05-22T07:47:17.828Z,814.00
2023-05-22T07:48:18.055Z,818.00
2023-05-22T07:49:17.867Z,824.00
2023-05-22T07:50:17.812Z,825.00
2023-05-22T07:51:17.797Z,829.00
2023-05-22T07:52:17.809Z,831.00
2023-05-22T07:53:17.808Z,831.00
2023-05-22T07:54:18.022Z,832.00
2023-05-22T07:55:17.781Z,834.00
2023-05-22T07:56:17.804Z,839.00
2023-05-22T07:57:17.763Z,843.00
2023-05-22T07:58:18.027Z,849.00
2023-05-22T07:59:17.795Z,849.00
2023-05-22T08:00:18.019Z,852.00
2023-05-22T08:01:17.757Z,856.00
2023-05-22T08:02:17.792Z,857.00
2023-05-22T08:03:18.151Z,858.00
2023-05-22T08:04:17.838Z,857.00
2023-05-22T08:05:18.065Z,862.00
2023-05-22T08:06:17.715Z,858.00
2023-05-22T08:07:17.711Z,859.00
2023-05-22T08:08:17.694Z,862.00
2023-05-22T08:09:17.695Z,862.00
2023-05-22T08:10:17.690Z,863.00
2023-05-22T08:11:17.692Z,858.00
2023-05-22T08:12:17.737Z,861.00
2023-05-22T08:13:17.828Z,862.00
2023-05-22T08:14:17.855Z,861.00
2023-05-22T08:15:17.860Z,862.00
2023-05-22T08:16:17.890Z,863.00
2023-05-22T08:17:17.982Z,863.00
2023-05-22T08:18:18.037Z,865.00
2023-05-22T08:19:18.141Z,861.00
2023-05-22T08:20:18.179Z,857.00
2023-05-22T08:21:18.187Z,849.00
2023-05-22T08:22:18.230Z,840.00
2023-05-22T08:23:18.536Z,820.00
2023-05-22T08:24:18.308Z,816.00
2023-05-22T08:25:18.327Z,795.00
2023-05-22T08:26:18.364Z,783.00
2023-05-22T08:27:18.417Z,676.00
2023-05-22T08:28:18.477Z,582.00
2023-05-22T08:29:18.480Z,576.00
2023-05-22T08:30:18.524Z,567.00
2023-05-22T08:31:18.556Z,560.00
2023-05-22T08:32:18.526Z,559.00
2023-05-22T08:33:18.560Z,549.00
2023-05-22T08:34:19.024Z,547.00
2023-05-22T08:35:18.543Z,529.00
2023-05-22T08:36:18.600Z,503.00
2023-05-22T08:37:18.543Z,493.00
2023-05-22T08:38:18.550Z,494.00
2023-05-22T08:39:19.081Z,554.00
2023-05-22T08:40:18.582Z,581.00
2023-05-22T08:41:18.632Z,562.00
2023-05-22T08:42:18.712Z,538.00
2023-05-22T08:43:18.753Z,566.00
2023-05-22T08:44:18.831Z,620.00
2023-05-22T08:45:18.873Z,600.00
2023-05-22T08:46:18.950Z,594.00
2023-05-22T08:47:19.196Z,576.00
2023-05-22T08:48:19.068Z,581.00
2023-05-22T08:49:19.875Z,579.00
2023-05-22T08:50:19.048Z,581.00
2023-05-22T08:51:19.093Z,585.00
2023-05-22T08:52:19.132Z,547.00
2023-05-22T08:53:19.232Z,542.00
2023-05-22T08:54:19.191Z,545.00
2023-05-22T08:55:19.208Z,537.00
2023-05-22T08:56:19.217Z,544.00
2023-05-22T08:57:19.269Z,561.00
2023-05-22T08:58:19.276Z,575.00
2023-05-22T08:59:19.544Z,657.00
2023-05-22T09:00:19.344Z,576.00
2023-05-22T09:01:19.385Z,577.00
2023-05-22T09:02:19.351Z,577.00
2023-05-22T09:03:19.385Z,577.00
2023-05-22T09:04:19.369Z,572.00
2023-05-22T09:05:19.399Z,550.00
2023-05-22T09:06:19.384Z,540.00
2023-05-22T09:07:19.395Z,524.00
2023-05-22T09:08:21.230Z,522.00
2023-05-22T09:09:19.464Z,529.00
2023-05-22T09:10:19.415Z,531.00
2023-05-22T09:11:19.427Z,527.00
2023-05-22T09:12:19.420Z,529.00
2023-05-22T09:13:19.429Z,531.00
2023-05-22T09:14:19.438Z,534.00
2023-05-22T09:15:19.472Z,535.00
2023-05-22T09:16:19.507Z,605.00
2023-05-22T09:17:19.463Z,539.00
2023-05-22T09:18:19.548Z,541.00
2023-05-22T09:19:19.526Z,542.00
2023-05-22T09:20:19.459Z,537.00
2023-05-22T09:21:29.723Z,530.00
2023-05-22T09:22:21.773Z,522.00
2023-05-22T09:23:19.425Z,520.00
2023-05-22T09:24:19.432Z,523.00
2023-05-22T09:25:19.449Z,513.00
2023-05-22T09:26:19.425Z,513.00
2023-05-22T09:27:19.404Z,524.00
2023-05-22T09:28:19.420Z,546.00
2023-05-22T09:29:19.401Z,541.00
2023-05-22T09:30:19.408Z,531.00
2023-05-22T09:31:19.482Z,539.00
2023-05-22T09:32:19.379Z,533.00
2023-05-22T09:33:19.559Z,538.00
2023-05-22T09:34:19.361Z,547.00
2023-05-22T09:35:19.370Z,552.00
2023-05-22T09:36:19.357Z,552.00
2023-05-22T09:37:19.330Z,549.00
2023-05-22T09:38:19.581Z,522.00
2023-05-22T09:39:19.324Z,521.00
2023-05-22T09:40:19.321Z,511.00
2023-05-22T09:41:19.313Z,501.00
2023-05-22T09:42:19.320Z,511.00
2023-05-22T09:43:19.305Z,571.00
2023-05-22T09:44:19.284Z,561.00
2023-05-22T09:45:19.273Z,587.00
2023-05-22T09:46:19.323Z,561.00
2023-05-22T09:47:19.301Z,545.00
2023-05-22T09:48:19.558Z,539.00
2023-05-22T09:49:19.282Z,509.00
2023-05-22T09:50:19.275Z,500.00
2023-05-22T09:51:19.256Z,504.00
2023-05-22T09:52:19.239Z,504.00
2023-05-22T09:53:19.222Z,489.00
2023-05-22T09:54:19.221Z,487.00
2023-05-22T09:55:19.219Z,484.00
2023-05-22T09:56:27.225Z,483.00
2023-05-22T09:57:20.216Z,480.00
2023-05-22T09:58:19.197Z,483.00
2023-05-22T09:59:19.190Z,483.00
2023-05-22T10:00:19.194Z,483.00
2023-05-22T10:01:19.242Z,488.00
2023-05-22T10:02:19.171Z,489.00
2023-05-22T10:03:19.554Z,485.00
2023-05-22T10:04:19.220Z,482.00
2023-05-22T10:05:19.164Z,485.00
2023-05-22T10:06:19.175Z,488.00
2023-05-22T10:07:19.209Z,488.00
2023-05-22T10:08:19.260Z,484.00
2023-05-22T10:09:19.785Z,478.00
2023-05-22T10:10:19.327Z,471.00
2023-05-22T10:11:19.391Z,471.00
2023-05-22T10:12:19.447Z,483.00
2023-05-22T10:13:19.591Z,550.00
2023-05-22T10:14:19.537Z,573.00
2023-05-22T10:15:19.607Z,575.00
2023-05-22T10:16:19.691Z,549.00
2023-05-22T10:17:19.733Z,481.00
2023-05-22T10:18:19.778Z,461.00
2023-05-22T10:19:20.096Z,468.00
2023-05-22T10:20:19.887Z,470.00
2023-05-22T10:21:19.930Z,464.00
2023-05-22T10:22:19.960Z,467.00
2023-05-22T10:23:20.063Z,468.00
2023-05-22T10:24:20.068Z,473.00
2023-05-22T10:25:20.121Z,459.00
2023-05-22T10:26:20.167Z,432.00
2023-05-22T10:27:20.200Z,416.00
2023-05-22T10:28:20.251Z,410.00
2023-05-22T10:29:20.669Z,410.00
2023-05-22T10:30:20.343Z,420.00
2023-05-22T10:31:20.326Z,507.00
2023-05-22T10:32:20.345Z,512.00
2023-05-22T10:33:20.705Z,459.00
2023-05-22T10:34:20.348Z,493.00
2023-05-22T10:35:20.351Z,480.00
2023-05-22T10:36:20.369Z,432.00
2023-05-22T10:37:20.899Z,408.00
2023-05-22T10:38:20.342Z,398.00
2023-05-22T10:39:20.354Z,384.00
2023-05-22T10:40:20.466Z,375.00
2023-05-22T10:41:20.381Z,368.00
2023-05-22T10:42:20.404Z,367.00
2023-05-22T10:43:20.463Z,365.00
2023-05-22T10:44:20.506Z,367.00
2023-05-22T10:45:20.669Z,363.00
2023-05-22T10:46:20.714Z,361.00
2023-05-22T10:47:20.674Z,358.00
2023-05-22T10:48:20.692Z,352.00
2023-05-22T10:49:20.705Z,351.00
2023-05-22T10:50:20.699Z,355.00
2023-05-22T10:51:20.690Z,462.00
2023-05-22T10:52:20.714Z,474.00
2023-05-22T10:53:20.741Z,417.00
2023-05-22T10:54:20.748Z,426.00
2023-05-22T10:55:20.734Z,395.00
2023-05-22T10:56:23.611Z,379.00
2023-05-22T10:57:20.757Z,373.00
2023-05-22T10:58:20.755Z,376.00
2023-05-22T10:59:20.742Z,372.00
2023-05-22T11:00:20.754Z,364.00
2023-05-22T11:01:20.840Z,361.00
2023-05-22T11:02:20.819Z,358.00
2023-05-22T11:03:21.196Z,355.00
2023-05-22T11:04:20.809Z,398.00
2023-05-22T11:05:20.726Z,362.00
2023-05-22T11:06:20.691Z,366.00
2023-05-22T11:07:20.672Z,469.00
2023-05-22T11:08:20.680Z,449.00
2023-05-22T11:09:20.685Z,472.00
2023-05-22T11:10:20.670Z,488.00
2023-05-22T11:11:20.645Z,484.00
2023-05-22T11:12:20.710Z,488.00
2023-05-22T11:13:21.113Z,490.00
2023-05-22T11:14:20.623Z,498.00
2023-05-22T11:15:20.631Z,508.00
2023-05-22T11:16:20.645Z,512.00
2023-05-22T11:17:20.685Z,515.00
2023-05-22T11:18:21.135Z,506.00
2023-05-22T11:19:23.817Z,503.00
2023-05-22T11:20:20.635Z,497.00
2023-05-22T11:21:20.594Z,492.00
2023-05-22T11:22:20.594Z,492.00
2023-05-22T11:23:20.572Z,495.00
2023-05-22T11:24:20.583Z,495.00
2023-05-22T11:25:20.573Z,492.00
2023-05-22T11:26:20.566Z,489.00
2023-05-22T11:27:20.546Z,487.00
2023-05-22T11:28:20.576Z,487.00
2023-05-22T11:29:20.536Z,487.00
2023-05-22T11:30:20.514Z,488.00
2023-05-22T11:31:20.566Z,486.00
2023-05-22T11:32:20.535Z,484.00
2023-05-22T11:33:20.759Z,483.00
2023-05-22T11:34:20.523Z,480.00
2023-05-22T11:35:20.487Z,479.00
2023-05-22T11:36:20.481Z,480.00
2023-05-22T11:37:20.504Z,481.00
2023-05-22T11:38:20.508Z,479.00
2023-05-22T11:39:20.479Z,476.00
2023-05-22T11:40:20.475Z,473.00
2023-05-22T11:41:20.468Z,472.00
2023-05-22T11:42:20.476Z,469.00
2023-05-22T11:43:20.460Z,468.00
2023-05-22T11:44:20.441Z,467.00
2023-05-22T11:45:20.447Z,466.00
2023-05-22T11:46:20.470Z,464.00
2023-05-22T11:47:20.419Z,462.00
2023-05-22T11:48:20.422Z,460.00
2023-05-22T11:49:20.548Z,457.00
2023-05-22T11:50:33.177Z,458.00
2023-05-22T11:51:21.516Z,458.00
2023-05-22T11:52:20.521Z,456.00
2023-05-22T11:53:20.508Z,454.00
2023-05-22T11:54:20.486Z,452.00
2023-05-22T11:55:20.482Z,451.00
2023-05-22T11:56:20.488Z,451.00
2023-05-22T11:57:20.473Z,450.00
2023-05-22T11:58:20.454Z,448.00
2023-05-22T11:59:20.444Z,449.00
2023-05-22T12:00:20.493Z,448.00
2023-05-22T12:01:20.437Z,446.00
2023-05-22T12:02:20.442Z,444.00
2023-05-22T12:03:20.677Z,443.00
2023-05-22T12:04:20.515Z,441.00
2023-05-22T12:05:20.501Z,436.00
2023-05-22T12:06:20.452Z,434.00
2023-05-22T12:07:20.396Z,432.00
2023-05-22T12:08:20.609Z,430.00
2023-05-22T12:09:20.404Z,433.00
2023-05-22T12:10:20.376Z,431.00
2023-05-22T12:11:20.377Z,427.00
2023-05-22T12:12:22.340Z,425.00
2023-05-22T12:13:20.382Z,423.00
2023-05-22T12:14:20.356Z,423.00
2023-05-22T12:15:20.361Z,423.00
2023-05-22T12:16:20.423Z,420.00
2023-05-22T12:17:20.337Z,419.00
2023-05-22T12:18:20.325Z,416.00
2023-05-22T12:19:20.338Z,417.00
2023-05-22T12:20:20.332Z,415.00
2023-05-22T12:21:20.400Z,416.00
2023-05-22T12:22:22.593Z,414.00
2023-05-22T12:23:20.311Z,411.00
2023-05-22T12:24:20.299Z,407.00
2023-05-22T12:25:20.520Z,405.00
2023-05-22T12:26:20.287Z,402.00
2023-05-22T12:27:20.294Z,399.00
2023-05-22T12:28:20.275Z,401.00